createdAt,value
2023-05-03T00:00:43.064Z,9.00
2023-05-03T00:03:46.529Z,8.90
2023-05-03T00:06:51.521Z,8.90
2023-05-03T00:09:54.884Z,8.90
2023-05-03T00:13:00.213Z,8.90
2023-05-03T00:16:03.600Z,8.80
2023-05-03T00:19:10.736Z,8.70
2023-05-03T00:22:22.929Z,8.60
2023-05-03T00:25:25.974Z,8.60
2023-05-03T00:28:28.893Z,8.60
2023-05-03T00:31:31.860Z,8.60
2023-05-03T00:34:34.919Z,8.50
2023-05-03T00:37:39.564Z,8.50
2023-05-03T00:40:43.075Z,8.50
2023-05-03T00:43:46.061Z,8.40
2023-05-03T00:46:49.073Z,8.40
2023-05-03T00:49:52.369Z,8.30
2023-05-03T00:52:57.019Z,8.30
2023-05-03T00:56:01.492Z,8.20
2023-05-03T00:59:06.018Z,8.10
2023-05-03T01:02:09.827Z,8.10
2023-05-03T01:05:12.915Z,8.10
2023-05-03T01:08:27.192Z,8.00
2023-05-03T01:11:40.062Z,8.00
2023-05-03T01:14:50.952Z,8.00
2023-05-03T01:18:02.981Z,7.90
2023-05-03T01:21:07.255Z,7.80
2023-05-03T01:24:17.689Z,7.80
2023-05-03T01:27:22.031Z,7.70
2023-05-03T01:30:28.558Z,7.60
2023-05-03T01:33:38.679Z,7.60
2023-05-03T01:36:45.031Z,7.60
2023-05-03T01:39:54.937Z,7.50
2023-05-03T01:43:00.719Z,7.50
2023-05-03T01:46:04.015Z,7.50
2023-05-03T01:49:07.033Z,7.40
2023-05-03T01:52:10.217Z,7.40
2023-05-03T01:55:13.151Z,7.30
2023-05-03T01:58:17.515Z,7.30
2023-05-03T02:01:20.543Z,7.20
2023-05-03T02:04:23.658Z,7.20
2023-05-03T02:07:26.681Z,7.20
2023-05-03T02:10:29.718Z,7.10
2023-05-03T02:13:34.329Z,7.10
2023-05-03T02:16:37.744Z,7.00
2023-05-03T02:19:40.740Z,7.00
2023-05-03T02:22:43.808Z,7.00
2023-05-03T02:25:46.717Z,7.00
2023-05-03T02:28:51.094Z,6.90
2023-05-03T02:31:54.228Z,6.90
2023-05-03T02:34:57.241Z,6.90
2023-05-03T02:38:00.450Z,6.80
2023-05-03T02:41:03.582Z,6.80
2023-05-03T02:44:07.955Z,6.80
2023-05-03T02:47:11.293Z,6.70
2023-05-03T02:50:14.194Z,6.70
2023-05-03T02:53:17.233Z,6.70
2023-05-03T02:56:20.902Z,6.60
2023-05-03T02:59:25.398Z,6.60
2023-05-03T03:02:28.444Z,6.60
2023-05-03T03:05:31.542Z,6.50
2023-05-03T03:08:34.581Z,6.50
2023-05-03T03:11:37.654Z,6.60
2023-05-03T03:14:42.802Z,6.50
2023-05-03T03:17:46.034Z,6.40
2023-05-03T03:20:49.020Z,6.30
2023-05-03T03:23:52.133Z,6.30
2023-05-03T03:26:55.109Z,6.30
2023-05-03T03:29:59.714Z,6.20
2023-05-03T03:33:02.743Z,6.10
2023-05-03T03:36:07.837Z,6.20
2023-05-03T03:39:10.912Z,6.10
2023-05-03T03:42:14.476Z,6.10
2023-05-03T03:45:18.968Z,6.10
2023-05-03T03:48:22.192Z,6.10
2023-05-03T03:51:25.550Z,6.10
2023-05-03T03:54:28.546Z,6.10
2023-05-03T03:57:31.650Z,6.10
2023-05-03T04:00:37.997Z,6.00
2023-05-03T04:03:41.835Z,6.00
2023-05-03T04:06:44.954Z,6.00
2023-05-03T04:09:48.104Z,5.90
2023-05-03T04:12:51.125Z,5.90
2023-05-03T04:15:57.579Z,6.00
2023-05-03T04:19:00.977Z,6.00
2023-05-03T04:22:03.988Z,6.10
2023-05-03T04:25:09.326Z,6.00
2023-05-03T04:28:13.519Z,6.00
2023-05-03T04:31:17.961Z,6.10
2023-05-03T04:34:20.966Z,6.10
2023-05-03T04:37:24.647Z,6.10
2023-05-03T04:40:27.718Z,6.10
2023-05-03T04:43:30.710Z,6.20
2023-05-03T04:46:35.160Z,6.30
2023-05-03T04:49:39.867Z,6.30
2023-05-03T04:52:43.029Z,6.40
2023-05-03T04:55:47.475Z,6.40
2023-05-03T04:58:51.628Z,6.50
2023-05-03T05:01:56.008Z,6.60
2023-05-03T05:04:59.040Z,6.60
2023-05-03T05:08:02.068Z,6.70
2023-05-03T05:11:05.970Z,6.80
2023-05-03T05:14:09.444Z,6.90
2023-05-03T05:17:13.957Z,7.00
2023-05-03T05:20:18.926Z,7.20
2023-05-03T05:23:22.120Z,7.40
2023-05-03T05:26:25.941Z,7.50
2023-05-03T05:29:28.881Z,7.60
2023-05-03T05:32:33.428Z,7.80
2023-05-03T05:35:36.786Z,7.90
2023-05-03T05:38:39.848Z,8.00
2023-05-03T05:41:42.848Z,8.20
2023-05-03T05:44:46.062Z,8.60
2023-05-03T05:47:52.198Z,8.90
2023-05-03T05:50:55.331Z,9.20
2023-05-03T05:53:58.488Z,9.50
2023-05-03T05:57:01.543Z,9.80
2023-05-03T06:00:14.243Z,10.00
2023-05-03T06:03:18.711Z,10.10
2023-05-03T06:06:21.752Z,10.30
2023-05-03T06:09:25.377Z,10.50
2023-05-03T06:12:28.790Z,10.70
2023-05-03T06:15:32.082Z,10.70
2023-05-03T06:18:36.405Z,10.90
2023-05-03T06:21:39.573Z,11.10
2023-05-03T06:24:42.569Z,11.10
2023-05-03T06:27:45.703Z,11.00
2023-05-03T06:30:50.475Z,11.10
2023-05-03T06:33:55.025Z,11.10
2023-05-03T06:36:57.986Z,11.30
2023-05-03T06:40:01.052Z,11.60
2023-05-03T06:43:05.368Z,11.70
2023-05-03T06:46:09.775Z,11.90
2023-05-03T06:49:14.131Z,11.90
2023-05-03T06:52:17.339Z,11.90
2023-05-03T06:55:20.307Z,12.10
2023-05-03T06:58:23.285Z,11.70
2023-05-03T07:01:26.662Z,11.80
2023-05-03T07:04:31.120Z,11.90
2023-05-03T07:07:35.668Z,12.10
2023-05-03T07:10:38.791Z,12.30
2023-05-03T07:13:41.763Z,12.30
2023-05-03T07:16:44.936Z,12.40
2023-05-03T07:19:50.102Z,12.50
2023-05-03T07:22:53.014Z,12.50
2023-05-03T07:25:56.188Z,12.50
2023-05-03T07:28:59.258Z,12.30
2023-05-03T07:32:02.616Z,11.70
2023-05-03T07:35:08.543Z,11.90
2023-05-03T07:38:11.474Z,11.40
2023-05-03T07:41:14.687Z,10.90
2023-05-03T07:44:21.041Z,10.70
2023-05-03T07:47:24.356Z,10.80
2023-05-03T07:50:29.176Z,10.70
2023-05-03T07:53:32.177Z,10.90
2023-05-03T07:56:35.245Z,10.90
2023-05-03T07:59:38.713Z,11.20
2023-05-03T08:02:41.929Z,11.40
2023-05-03T08:05:47.124Z,11.40
2023-05-03T08:08:50.230Z,11.40
2023-05-03T08:11:53.308Z,11.30
2023-05-03T08:14:56.919Z,11.20
2023-05-03T08:18:01.000Z,11.10
2023-05-03T08:21:06.314Z,11.00
2023-05-03T08:24:10.153Z,10.60
2023-05-03T08:27:13.214Z,10.60
2023-05-03T08:30:16.690Z,10.90
2023-05-03T08:33:19.725Z,11.00
2023-05-03T08:36:24.098Z,11.10
2023-05-03T08:39:27.228Z,11.40
2023-05-03T08:42:31.879Z,11.50
2023-05-03T08:45:35.911Z,11.70
2023-05-03T08:48:39.103Z,11.70
2023-05-03T08:51:47.148Z,11.70
2023-05-03T08:54:50.297Z,11.90
2023-05-03T08:57:53.305Z,11.90
2023-05-03T09:00:56.308Z,12.10
2023-05-03T09:03:59.282Z,12.20
2023-05-03T09:07:15.810Z,12.30
2023-05-03T09:10:24.025Z,12.50
2023-05-03T09:13:32.350Z,12.40
2023-05-03T09:16:35.931Z,12.30
2023-05-03T09:19:51.601Z,12.30
2023-05-03T09:22:55.968Z,12.50
2023-05-03T09:25:59.736Z,12.50
2023-05-03T09:29:05.056Z,12.70
2023-05-03T09:32:08.652Z,12.80
2023-05-03T09:35:13.673Z,12.70
2023-05-03T09:38:27.897Z,12.50
2023-05-03T09:41:32.720Z,12.60
2023-05-03T09:44:43.660Z,12.80
2023-05-03T09:47:54.054Z,12.90
2023-05-03T09:50:57.456Z,12.80
2023-05-03T09:54:03.542Z,13.00
2023-05-03T09:57:08.106Z,13.00
2023-05-03T10:00:13.729Z,13.10
2023-05-03T10:03:24.581Z,12.90
2023-05-03T10:06:33.646Z,13.00
2023-05-03T10:09:41.442Z,13.10
2023-05-03T10:12:45.461Z,13.30
2023-05-03T10:15:50.754Z,13.30
2023-05-03T10:18:59.913Z,13.50
2023-05-03T10:22:06.292Z,13.30
2023-05-03T10:25:13.094Z,13.50
2023-05-03T10:28:17.099Z,13.50
2023-05-03T10:31:45.567Z,13.60
2023-05-03T10:34:48.752Z,13.90
2023-05-03T10:37:52.920Z,13.90
2023-05-03T10:40:58.966Z,13.90
2023-05-03T10:44:02.125Z,14.00
2023-05-03T10:47:15.338Z,14.10
2023-05-03T10:50:29.432Z,14.30
2023-05-03T10:53:39.334Z,13.90
2023-05-03T10:56:55.176Z,13.90
2023-05-03T11:00:00.015Z,14.00
2023-05-03T11:03:14.407Z,14.30
2023-05-03T11:06:33.924Z,14.60
2023-05-03T11:09:36.979Z,14.70
2023-05-03T11:12:41.311Z,14.80
2023-05-03T11:15:45.788Z,14.70
2023-05-03T11:18:50.157Z,14.60
2023-05-03T11:21:53.643Z,14.60
2023-05-03T11:24:57.548Z,14.60
2023-05-03T11:28:02.829Z,14.60
2023-05-03T11:31:06.502Z,14.70
2023-05-03T11:34:09.815Z,14.90
2023-05-03T11:37:12.772Z,15.00
2023-05-03T11:40:18.165Z,15.20
2023-05-03T11:43:22.560Z,15.40
2023-05-03T11:46:28.072Z,15.30
2023-05-03T11:49:31.421Z,15.20
2023-05-03T11:52:37.601Z,15.00
2023-05-03T11:55:42.474Z,15.00
2023-05-03T11:58:56.248Z,15.00
2023-05-03T12:01:59.601Z,15.20
2023-05-03T12:05:03.691Z,15.40
2023-05-03T12:08:07.311Z,15.50
2023-05-03T12:11:13.784Z,15.10
2023-05-03T12:14:19.812Z,15.30
2023-05-03T12:17:37.220Z,15.40
2023-05-03T12:23:50.555Z,15.60
2023-05-03T12:26:55.932Z,15.60
2023-05-03T12:30:02.047Z,15.70
2023-05-03T12:33:08.074Z,15.60
2023-05-03T12:36:14.785Z,15.70
2023-05-03T12:39:21.540Z,15.80
2023-05-03T12:42:28.611Z,15.90
2023-05-03T12:45:34.648Z,16.10
2023-05-03T12:48:38.279Z,16.20
2023-05-03T12:51:42.685Z,16.10
2023-05-03T12:54:49.236Z,16.10
2023-05-03T12:58:10.320Z,16.00
2023-05-03T13:02:05.008Z,16.10
2023-05-03T13:07:55.536Z,16.00
2023-05-03T13:10:59.710Z,15.60
2023-05-03T13:14:03.610Z,15.80
2023-05-03T13:17:08.310Z,16.00
2023-05-03T13:20:12.230Z,16.10
2023-05-03T13:23:15.335Z,16.40
2023-05-03T13:26:18.606Z,16.50
2023-05-03T13:29:22.049Z,16.40
2023-05-03T13:32:26.690Z,16.30
2023-05-03T13:35:29.801Z,16.30
2023-05-03T13:38:33.809Z,16.50
2023-05-03T13:41:38.962Z,16.50
2023-05-03T13:44:42.528Z,16.60
2023-05-03T13:48:13.261Z,16.50
2023-05-03T13:51:10.528Z,16.40
2023-05-03T13:54:13.847Z,16.40
2023-05-03T13:57:18.168Z,16.60
2023-05-03T14:00:22.152Z,16.50
2023-05-03T14:03:27.003Z,16.40
2023-05-03T14:06:32.872Z,16.50
2023-05-03T14:09:39.495Z,16.60
2023-05-03T14:12:42.779Z,16.80
2023-05-03T14:15:46.214Z,16.90
2023-05-03T14:18:52.398Z,17.00
2023-05-03T14:21:59.539Z,17.20
2023-05-03T14:25:03.023Z,17.20
2023-05-03T14:28:06.385Z,17.10
2023-05-03T14:31:09.460Z,17.00
2023-05-03T14:34:14.118Z,17.00
2023-05-03T14:37:17.220Z,17.20
2023-05-03T14:40:21.033Z,17.20
2023-05-03T14:43:24.127Z,17.20
2023-05-03T14:46:27.151Z,17.20
2023-05-03T14:49:37.321Z,17.10
2023-05-03T14:52:40.316Z,17.00
2023-05-03T14:55:43.817Z,16.90
2023-05-03T14:58:47.091Z,17.00
2023-05-03T15:01:53.170Z,17.20
2023-05-03T15:04:57.802Z,17.40
2023-05-03T15:08:00.783Z,17.50
2023-05-03T15:11:03.754Z,17.50
2023-05-03T15:14:07.239Z,17.60
2023-05-03T15:17:10.693Z,17.60
2023-05-03T15:20:15.731Z,17.00
2023-05-03T15:23:18.722Z,17.10
2023-05-03T15:26:22.536Z,17.20
2023-05-03T15:29:25.562Z,17.20
2023-05-03T15:32:28.901Z,17.40
2023-05-03T15:35:33.820Z,17.80
2023-05-03T15:38:36.820Z,18.00
2023-05-03T15:41:40.235Z,17.60
2023-05-03T15:44:46.829Z,17.50
2023-05-03T15:47:49.924Z,17.20
2023-05-03T15:50:54.369Z,17.30
2023-05-03T15:53:57.391Z,17.40
2023-05-03T15:57:05.131Z,17.00
2023-05-03T16:00:11.739Z,16.90
2023-05-03T16:03:15.696Z,16.80
2023-05-03T16:06:20.149Z,16.50
2023-05-03T16:09:23.281Z,16.40
2023-05-03T16:12:27.292Z,16.40
2023-05-03T16:15:31.127Z,16.20
2023-05-03T16:18:34.166Z,16.20
2023-05-03T16:21:38.509Z,15.90
2023-05-03T16:24:41.458Z,15.80
2023-05-03T16:27:44.457Z,15.60
2023-05-03T16:30:47.436Z,15.50
2023-05-03T16:33:50.380Z,15.50
2023-05-03T16:36:54.739Z,15.40
2023-05-03T16:39:57.878Z,15.20
2023-05-03T16:43:00.976Z,15.10
2023-05-03T16:46:04.188Z,15.00
2023-05-03T16:49:07.560Z,15.00
2023-05-03T16:52:11.999Z,15.00
2023-05-03T16:55:19.252Z,15.00
2023-05-03T16:58:22.174Z,15.00
2023-05-03T17:01:25.235Z,14.90
2023-05-03T17:04:29.220Z,14.90
2023-05-03T17:07:33.944Z,14.80
2023-05-03T17:10:39.121Z,14.80
2023-05-03T17:13:42.475Z,14.70
2023-05-03T17:16:46.696Z,14.60
2023-05-03T17:19:49.723Z,14.50
2023-05-03T17:22:54.667Z,14.50
2023-05-03T17:26:00.800Z,14.50
2023-05-03T17:29:06.238Z,14.60
2023-05-03T17:32:09.215Z,14.50
2023-05-03T17:35:12.525Z,14.40
2023-05-03T17:38:17.167Z,14.30
2023-05-03T17:41:20.147Z,14.20
2023-05-03T17:44:23.246Z,14.10
2023-05-03T17:47:26.226Z,14.00
2023-05-03T17:50:29.241Z,14.00
2023-05-03T17:53:33.881Z,13.90
2023-05-03T17:56:36.937Z,13.90
2023-05-03T17:59:41.274Z,13.90
2023-05-03T18:02:44.801Z,13.80
2023-05-03T18:05:48.018Z,13.80
2023-05-03T18:08:52.391Z,13.70
2023-05-03T18:11:56.369Z,13.70
2023-05-03T18:15:00.415Z,13.60
2023-05-03T18:18:03.654Z,13.60
2023-05-03T18:21:06.907Z,13.50
2023-05-03T18:24:12.939Z,13.50
2023-05-03T18:27:15.987Z,13.50
2023-05-03T18:30:19.302Z,13.40
2023-05-03T18:33:22.952Z,13.40
2023-05-03T18:36:27.430Z,13.30
2023-05-03T18:39:33.580Z,13.20
2023-05-03T18:42:36.749Z,13.10
2023-05-03T18:45:40.457Z,13.10
2023-05-03T18:48:43.894Z,13.10
2023-05-03T18:51:47.322Z,13.00
2023-05-03T18:54:51.864Z,12.90
2023-05-03T18:57:54.928Z,12.80
2023-05-03T19:00:59.956Z,12.70
2023-05-03T19:04:04.383Z,12.50
2023-05-03T19:07:07.506Z,12.50
2023-05-03T19:10:12.782Z,12.50
2023-05-03T19:13:16.699Z,12.40
2023-05-03T19:16:19.871Z,12.30
2023-05-03T19:19:26.053Z,12.30
2023-05-03T19:22:29.173Z,12.30
2023-05-03T19:25:35.961Z,12.30
2023-05-03T19:28:39.052Z,12.20
2023-05-03T19:31:42.116Z,12.10
2023-05-03T19:34:45.132Z,12.10
2023-05-03T19:37:48.199Z,12.00
2023-05-03T19:40:59.074Z,12.00
2023-05-03T19:44:02.206Z,11.90
2023-05-03T19:47:05.330Z,11.90
2023-05-03T19:50:08.888Z,11.80
2023-05-03T19:53:12.710Z,11.80
2023-05-03T19:56:18.315Z,11.70
2023-05-03T19:59:21.519Z,11.70
2023-05-03T20:02:25.245Z,11.70
2023-05-03T20:05:28.355Z,11.70
2023-05-03T20:08:32.521Z,11.60
2023-05-03T20:11:36.990Z,11.60
2023-05-03T20:14:40.103Z,11.50
2023-05-03T20:17:43.224Z,11.50
2023-05-03T20:20:46.350Z,11.50
2023-05-03T20:23:50.279Z,11.40
2023-05-03T20:26:54.860Z,11.40
2023-05-03T20:29:58.201Z,11.30
2023-05-03T20:33:02.034Z,11.20
2023-05-03T20:36:06.126Z,11.20
2023-05-03T20:39:09.737Z,11.10
2023-05-03T20:42:14.459Z,11.10
2023-05-03T20:45:17.574Z,11.10
2023-05-03T20:48:20.777Z,11.10
2023-05-03T20:51:25.284Z,11.10
2023-05-03T20:54:28.354Z,11.10
2023-05-03T20:57:32.779Z,11.10
2023-05-03T21:00:35.801Z,11.10
2023-05-03T21:03:38.838Z,11.10
2023-05-03T21:06:44.898Z,11.00
2023-05-03T21:09:48.319Z,11.00
2023-05-03T21:12:53.073Z,10.90
2023-05-03T21:15:56.823Z,10.80
2023-05-03T21:19:00.369Z,10.70
2023-05-03T21:22:03.752Z,10.70
2023-05-03T21:25:07.862Z,10.60
2023-05-03T21:28:12.351Z,10.50
2023-05-03T21:31:15.396Z,10.50
2023-05-03T21:34:18.427Z,10.40
2023-05-03T21:37:21.490Z,10.40
2023-05-03T21:40:26.354Z,10.30
2023-05-03T21:43:30.789Z,10.30
2023-05-03T21:46:33.897Z,10.30
2023-05-03T21:49:36.945Z,10.20
2023-05-03T21:52:40.250Z,10.20
2023-05-03T21:55:43.333Z,10.10
2023-05-03T21:58:47.764Z,10.10
2023-05-03T22:01:50.851Z,10.10
2023-05-03T22:04:53.916Z,10.00
2023-05-03T22:07:56.915Z,10.00
2023-05-03T22:11:00.075Z,10.00
2023-05-03T22:14:08.435Z,9.90
2023-05-03T22:17:11.788Z,9.90
2023-05-03T22:20:14.870Z,9.80
2023-05-03T22:23:18.010Z,9.70
2023-05-03T22:26:21.013Z,9.70
2023-05-03T22:29:25.650Z,9.70
2023-05-03T22:32:28.932Z,9.60
2023-05-03T22:35:31.957Z,9.60
2023-05-03T22:38:35.120Z,9.50
2023-05-03T22:41:38.212Z,9.50
2023-05-03T22:44:42.740Z,9.50
2023-05-03T22:47:45.729Z,9.40
2023-05-03T22:50:48.825Z,9.40
2023-05-03T22:53:52.109Z,9.40
2023-05-03T22:56:55.250Z,9.40
2023-05-03T23:00:01.685Z,9.30
2023-05-03T23:03:04.812Z,9.30
2023-05-03T23:06:08.302Z,9.20
2023-05-03T23:09:11.741Z,9.20
2023-05-03T23:12:15.014Z,9.10
2023-05-03T23:15:19.904Z,9.00
2023-05-03T23:18:23.303Z,9.00
2023-05-03T23:21:26.271Z,9.00
2023-05-03T23:24:29.293Z,8.90
2023-05-03T23:27:32.363Z,8.80
2023-05-03T23:30:44.337Z,8.80
2023-05-03T23:33:47.671Z,8.70
2023-05-03T23:36:50.776Z,8.60
2023-05-03T23:39:54.352Z,8.60
2023-05-03T23:42:57.386Z,8.50
2023-05-03T23:46:03.076Z,8.50
2023-05-03T23:49:07.437Z,8.50
2023-05-03T23:52:10.969Z,8.40
2023-05-03T23:55:14.167Z,8.40
2023-05-03T23:58:17.172Z,8.30
